sensor_id;sensor_type;location;lat;lon;timestamp;P1;durP1;ratioP1;P2;durP2;ratioP2
34836;SDS011;21053;50.848;4.652;2022-11-20T00:01:15;46.28;;;22.67;;
34836;SDS011;21053;50.848;4.652;2022-11-20T00:03:45;44.33;;;23.10;;
34836;SDS011;21053;50.848;4.652;2022-11-20T00:06:12;45.75;;;23.65;;
34836;SDS011;21053;50.848;4.652;2022-11-20T00:08:41;49.53;;;24.67;;
34836;SDS011;21053;50.848;4.652;2022-11-20T00:11:14;44.65;;;23.63;;
34836;SDS011;21053;50.848;4.652;2022-11-20T00:16:13;50.03;;;25.27;;
34836;SDS011;21053;50.848;4.652;2022-11-20T00:18:46;46.90;;;23.90;;
34836;SDS011;21053;50.848;4.652;2022-11-20T00:21:14;49.35;;;24.10;;
34836;SDS011;21053;50.848;4.652;2022-11-20T00:23:44;48.38;;;23.38;;
34836;SDS011;21053;50.848;4.652;2022-11-20T00:26:13;41.65;;;22.40;;
34836;SDS011;21053;50.848;4.652;2022-11-20T00:28:42;48.10;;;23.08;;
34836;SDS011;21053;50.848;4.652;2022-11-20T00:31:13;47.85;;;22.70;;
34836;SDS011;21053;50.848;4.652;2022-11-20T00:33:40;46.10;;;23.05;;
34836;SDS011;21053;50.848;4.652;2022-11-20T00:36:17;44.13;;;22.65;;
34836;SDS011;21053;50.848;4.652;2022-11-20T00:41:16;45.10;;;22.02;;
34836;SDS011;21053;50.848;4.652;2022-11-20T00:43:44;51.90;;;24.23;;
34836;SDS011;21053;50.848;4.652;2022-11-20T00:46:14;50.47;;;23.25;;
34836;SDS011;21053;50.848;4.652;2022-11-20T00:48:43;46.22;;;23.67;;
34836;SDS011;21053;50.848;4.652;2022-11-20T00:51:11;53.53;;;24.90;;
34836;SDS011;21053;50.848;4.652;2022-11-20T00:53:39;49.00;;;25.85;;
34836;SDS011;21053;50.848;4.652;2022-11-20T00:56:06;48.80;;;23.77;;
34836;SDS011;21053;50.848;4.652;2022-11-20T01:01:05;52.60;;;25.17;;
34836;SDS011;21053;50.848;4.652;2022-11-20T01:03:35;58.78;;;25.73;;
34836;SDS011;21053;50.848;4.652;2022-11-20T01:06:07;50.10;;;24.33;;
34836;SDS011;21053;50.848;4.652;2022-11-20T01:08:39;52.45;;;25.45;;
34836;SDS011;21053;50.848;4.652;2022-11-20T01:11:07;54.45;;;24.92;;
34836;SDS011;21053;50.848;4.652;2022-11-20T01:13:40;53.80;;;25.45;;
34836;SDS011;21053;50.848;4.652;2022-11-20T01:16:11;51.60;;;24.95;;
34836;SDS011;21053;50.848;4.652;2022-11-20T01:18:46;45.72;;;23.48;;
34836;SDS011;21053;50.848;4.652;2022-11-20T01:21:16;50.95;;;25.30;;
34836;SDS011;21053;50.848;4.652;2022-11-20T01:23:47;50.47;;;24.40;;
34836;SDS011;21053;50.848;4.652;2022-11-20T01:26:17;55.95;;;25.63;;
34836;SDS011;21053;50.848;4.652;2022-11-20T01:31:35;48.95;;;24.45;;
34836;SDS011;21053;50.848;4.652;2022-11-20T01:34:05;58.33;;;25.25;;
34836;SDS011;21053;50.848;4.652;2022-11-20T01:36:35;52.70;;;26.77;;
34836;SDS011;21053;50.848;4.652;2022-11-20T01:39:06;55.92;;;26.30;;
34836;SDS011;21053;50.848;4.652;2022-11-20T01:41:35;60.88;;;26.52;;
34836;SDS011;21053;50.848;4.652;2022-11-20T01:44:21;54.10;;;24.98;;
34836;SDS011;21053;50.848;4.652;2022-11-20T01:47:09;52.03;;;25.85;;
34836;SDS011;21053;50.848;4.652;2022-11-20T01:49:43;54.30;;;25.58;;
34836;SDS011;21053;50.848;4.652;2022-11-20T01:52:19;57.38;;;26.42;;
34836;SDS011;21053;50.848;4.652;2022-11-20T01:55:09;52.03;;;26.15;;
34836;SDS011;21053;50.848;4.652;2022-11-20T01:57:44;63.90;;;28.60;;
34836;SDS011;21053;50.848;4.652;2022-11-20T02:00:13;64.35;;;27.85;;
34836;SDS011;21053;50.848;4.652;2022-11-20T02:02:51;62.72;;;27.42;;
34836;SDS011;21053;50.848;4.652;2022-11-20T02:05:25;58.83;;;27.27;;
34836;SDS011;21053;50.848;4.652;2022-11-20T02:08:14;64.63;;;28.63;;
34836;SDS011;21053;50.848;4.652;2022-11-20T02:10:42;60.75;;;27.85;;
34836;SDS011;21053;50.848;4.652;2022-11-20T02:13:07;63.75;;;29.52;;
34836;SDS011;21053;50.848;4.652;2022-11-20T02:20:53;60.92;;;28.45;;
34836;SDS011;21053;50.848;4.652;2022-11-20T02:25:55;63.30;;;29.00;;
34836;SDS011;21053;50.848;4.652;2022-11-20T02:28:24;60.63;;;28.25;;
34836;SDS011;21053;50.848;4.652;2022-11-20T02:30:50;66.45;;;29.85;;
34836;SDS011;21053;50.848;4.652;2022-11-20T02:33:18;65.65;;;29.67;;
34836;SDS011;21053;50.848;4.652;2022-11-20T02:35:50;64.07;;;29.45;;
34836;SDS011;21053;50.848;4.652;2022-11-20T02:40:44;74.50;;;31.27;;
34836;SDS011;21053;50.848;4.652;2022-11-20T02:43:11;65.53;;;30.13;;
34836;SDS011;21053;50.848;4.652;2022-11-20T02:45:40;82.07;;;33.25;;
34836;SDS011;21053;50.848;4.652;2022-11-20T02:50:40;67.32;;;30.02;;
34836;SDS011;21053;50.848;4.652;2022-11-20T02:53:07;76.18;;;30.75;;
34836;SDS011;21053;50.848;4.652;2022-11-20T02:55:33;75.60;;;30.65;;
34836;SDS011;21053;50.848;4.652;2022-11-20T02:57:59;81.57;;;32.53;;
34836;SDS011;21053;50.848;4.652;2022-11-20T03:02:54;79.05;;;33.20;;
34836;SDS011;21053;50.848;4.652;2022-11-20T03:05:21;83.88;;;32.80;;
34836;SDS011;21053;50.848;4.652;2022-11-20T03:07:48;76.45;;;32.50;;
34836;SDS011;21053;50.848;4.652;2022-11-20T03:12:43;93.53;;;33.88;;
34836;SDS011;21053;50.848;4.652;2022-11-20T03:15:12;78.10;;;33.55;;
34836;SDS011;21053;50.848;4.652;2022-11-20T03:17:38;79.65;;;32.20;;
34836;SDS011;21053;50.848;4.652;2022-11-20T03:22:34;92.18;;;32.95;;
34836;SDS011;21053;50.848;4.652;2022-11-20T03:25:02;89.43;;;33.67;;
34836;SDS011;21053;50.848;4.652;2022-11-20T03:27:35;82.18;;;33.88;;
34836;SDS011;21053;50.848;4.652;2022-11-20T03:30:03;83.35;;;32.28;;
34836;SDS011;21053;50.848;4.652;2022-11-20T03:32:30;80.90;;;33.20;;
34836;SDS011;21053;50.848;4.652;2022-11-20T03:34:57;86.65;;;33.53;;
34836;SDS011;21053;50.848;4.652;2022-11-20T03:37:38;80.20;;;32.15;;
34836;SDS011;21053;50.848;4.652;2022-11-20T03:40:04;74.60;;;31.00;;
34836;SDS011;21053;50.848;4.652;2022-11-20T03:42:33;72.82;;;31.10;;
34836;SDS011;21053;50.848;4.652;2022-11-20T03:45:12;84.50;;;31.45;;
34836;SDS011;21053;50.848;4.652;2022-11-20T03:47:40;75.57;;;29.80;;
34836;SDS011;21053;50.848;4.652;2022-11-20T03:50:06;85.45;;;30.85;;
34836;SDS011;21053;50.848;4.652;2022-11-20T03:52:34;74.70;;;29.85;;
34836;SDS011;21053;50.848;4.652;2022-11-20T03:55:02;79.25;;;30.10;;
34836;SDS011;21053;50.848;4.652;2022-11-20T03:59:58;74.65;;;28.92;;
34836;SDS011;21053;50.848;4.652;2022-11-20T04:04:52;64.22;;;28.27;;
34836;SDS011;21053;50.848;4.652;2022-11-20T04:09:47;74.80;;;27.15;;
34836;SDS011;21053;50.848;4.652;2022-11-20T04:12:14;67.45;;;27.50;;
34836;SDS011;21053;50.848;4.652;2022-11-20T04:14:41;73.80;;;26.70;;
34836;SDS011;21053;50.848;4.652;2022-11-20T04:17:09;56.85;;;25.33;;
34836;SDS011;21053;50.848;4.652;2022-11-20T04:19:35;58.88;;;25.52;;
34836;SDS011;21053;50.848;4.652;2022-11-20T04:22:02;65.78;;;26.00;;
34836;SDS011;21053;50.848;4.652;2022-11-20T04:24:30;64.70;;;26.40;;
34836;SDS011;21053;50.848;4.652;2022-11-20T04:26:59;56.03;;;23.98;;
34836;SDS011;21053;50.848;4.652;2022-11-20T04:29:28;58.17;;;24.98;;
34836;SDS011;21053;50.848;4.652;2022-11-20T04:31:56;62.60;;;25.25;;
34836;SDS011;21053;50.848;4.652;2022-11-20T04:34:24;63.55;;;25.42;;
34836;SDS011;21053;50.848;4.652;2022-11-20T04:36:53;62.83;;;25.73;;
34836;SDS011;21053;50.848;4.652;2022-11-20T04:41:48;58.60;;;24.23;;
34836;SDS011;21053;50.848;4.652;2022-11-20T04:44:34;50.95;;;22.60;;
34836;SDS011;21053;50.848;4.652;2022-11-20T04:47:03;55.50;;;24.02;;
34836;SDS011;21053;50.848;4.652;2022-11-20T04:52:01;56.92;;;22.50;;
34836;SDS011;21053;50.848;4.652;2022-11-20T04:54:27;56.70;;;23.05;;
34836;SDS011;21053;50.848;4.652;2022-11-20T04:56:56;52.42;;;22.23;;
34836;SDS011;21053;50.848;4.652;2022-11-20T05:01:52;56.80;;;21.88;;
34836;SDS011;21053;50.848;4.652;2022-11-20T05:04:18;49.15;;;21.20;;
34836;SDS011;21053;50.848;4.652;2022-11-20T05:09:15;50.75;;;21.15;;
34836;SDS011;21053;50.848;4.652;2022-11-20T05:11:46;48.78;;;20.70;;
34836;SDS011;21053;50.848;4.652;2022-11-20T05:14:13;60.75;;;21.40;;
34836;SDS011;21053;50.848;4.652;2022-11-20T05:16:39;51.38;;;21.30;;
34836;SDS011;21053;50.848;4.652;2022-11-20T05:19:05;48.60;;;20.80;;
34836;SDS011;21053;50.848;4.652;2022-11-20T05:21:37;52.35;;;21.73;;
34836;SDS011;21053;50.848;4.652;2022-11-20T05:24:03;45.33;;;20.30;;
34836;SDS011;21053;50.848;4.652;2022-11-20T05:29:02;54.25;;;21.65;;
34836;SDS011;21053;50.848;4.652;2022-11-20T05:31:30;58.90;;;22.48;;
34836;SDS011;21053;50.848;4.652;2022-11-20T05:33:58;48.45;;;20.73;;
34836;SDS011;21053;50.848;4.652;2022-11-20T05:36:25;50.78;;;22.00;;
34836;SDS011;21053;50.848;4.652;2022-11-20T05:38:51;46.63;;;19.35;;
34836;SDS011;21053;50.848;4.652;2022-11-20T05:41:17;58.00;;;21.90;;
34836;SDS011;21053;50.848;4.652;2022-11-20T05:43:48;51.65;;;20.58;;
34836;SDS011;21053;50.848;4.652;2022-11-20T05:51:16;55.05;;;21.10;;
34836;SDS011;21053;50.848;4.652;2022-11-20T05:53:43;56.40;;;23.13;;
34836;SDS011;21053;50.848;4.652;2022-11-20T05:58:41;53.88;;;21.85;;
34836;SDS011;21053;50.848;4.652;2022-11-20T06:01:12;51.58;;;20.75;;
34836;SDS011;21053;50.848;4.652;2022-11-20T06:03:43;55.72;;;21.50;;
34836;SDS011;21053;50.848;4.652;2022-11-20T06:06:14;51.67;;;20.15;;
34836;SDS011;21053;50.848;4.652;2022-11-20T06:08:40;52.90;;;21.92;;
34836;SDS011;21053;50.848;4.652;2022-11-20T06:11:08;50.30;;;21.52;;
34836;SDS011;21053;50.848;4.652;2022-11-20T06:16:05;56.28;;;22.27;;
34836;SDS011;21053;50.848;4.652;2022-11-20T06:18:34;48.80;;;20.70;;
34836;SDS011;21053;50.848;4.652;2022-11-20T06:21:04;61.15;;;23.73;;
34836;SDS011;21053;50.848;4.652;2022-11-20T06:23:34;72.45;;;26.17;;
34836;SDS011;21053;50.848;4.652;2022-11-20T06:26:05;70.68;;;26.30;;
34836;SDS011;21053;50.848;4.652;2022-11-20T06:28:35;68.70;;;25.88;;
34836;SDS011;21053;50.848;4.652;2022-11-20T06:31:03;76.90;;;26.23;;
34836;SDS011;21053;50.848;4.652;2022-11-20T06:33:30;74.65;;;26.88;;
34836;SDS011;21053;50.848;4.652;2022-11-20T06:36:00;86.78;;;27.27;;
34836;SDS011;21053;50.848;4.652;2022-11-20T06:38:27;86.70;;;28.42;;
34836;SDS011;21053;50.848;4.652;2022-11-20T06:43:28;76.50;;;27.33;;
34836;SDS011;21053;50.848;4.652;2022-11-20T06:45:55;78.22;;;27.40;;
34836;SDS011;21053;50.848;4.652;2022-11-20T06:48:24;80.82;;;28.20;;
34836;SDS011;21053;50.848;4.652;2022-11-20T06:50:54;79.60;;;27.65;;
34836;SDS011;21053;50.848;4.652;2022-11-20T06:53:22;94.18;;;29.08;;
34836;SDS011;21053;50.848;4.652;2022-11-20T06:55:48;93.35;;;29.35;;
34836;SDS011;21053;50.848;4.652;2022-11-20T06:58:18;95.55;;;28.50;;
34836;SDS011;21053;50.848;4.652;2022-11-20T07:00:44;83.65;;;27.20;;
34836;SDS011;21053;50.848;4.652;2022-11-20T07:03:13;78.38;;;26.70;;
34836;SDS011;21053;50.848;4.652;2022-11-20T07:08:09;101.05;;;30.23;;
34836;SDS011;21053;50.848;4.652;2022-11-20T07:10:41;107.65;;;33.95;;
34836;SDS011;21053;50.848;4.652;2022-11-20T07:13:10;105.95;;;32.20;;
34836;SDS011;21053;50.848;4.652;2022-11-20T07:18:07;100.35;;;31.17;;
34836;SDS011;21053;50.848;4.652;2022-11-20T07:20:39;92.60;;;29.00;;
34836;SDS011;21053;50.848;4.652;2022-11-20T07:23:05;92.55;;;27.50;;
34836;SDS011;21053;50.848;4.652;2022-11-20T07:25:32;107.13;;;29.98;;
34836;SDS011;21053;50.848;4.652;2022-11-20T07:28:01;83.07;;;26.25;;
34836;SDS011;21053;50.848;4.652;2022-11-20T07:30:33;91.78;;;28.63;;
34836;SDS011;21053;50.848;4.652;2022-11-20T07:33:01;93.55;;;28.70;;
34836;SDS011;21053;50.848;4.652;2022-11-20T07:35:28;113.68;;;31.80;;
34836;SDS011;21053;50.848;4.652;2022-11-20T07:37:57;109.53;;;31.50;;
34836;SDS011;21053;50.848;4.652;2022-11-20T07:40:25;103.93;;;30.75;;
34836;SDS011;21053;50.848;4.652;2022-11-20T07:42:52;104.22;;;30.95;;
34836;SDS011;21053;50.848;4.652;2022-11-20T07:45:23;99.25;;;29.52;;
34836;SDS011;21053;50.848;4.652;2022-11-20T07:50:20;97.63;;;30.75;;
34836;SDS011;21053;50.848;4.652;2022-11-20T07:52:47;105.03;;;32.00;;
34836;SDS011;21053;50.848;4.652;2022-11-20T07:57:44;110.97;;;30.95;;
34836;SDS011;21053;50.848;4.652;2022-11-20T08:00:11;99.00;;;29.80;;
34836;SDS011;21053;50.848;4.652;2022-11-20T08:02:41;96.18;;;32.75;;
34836;SDS011;21053;50.848;4.652;2022-11-20T08:05:07;112.55;;;35.25;;
34836;SDS011;21053;50.848;4.652;2022-11-20T08:07:41;109.70;;;35.88;;
34836;SDS011;21053;50.848;4.652;2022-11-20T08:10:09;142.32;;;49.40;;
34836;SDS011;21053;50.848;4.652;2022-11-20T08:12:47;107.97;;;33.05;;
34836;SDS011;21053;50.848;4.652;2022-11-20T08:15:36;117.27;;;39.27;;
34836;SDS011;21053;50.848;4.652;2022-11-20T08:18:04;119.88;;;44.72;;
34836;SDS011;21053;50.848;4.652;2022-11-20T08:20:39;104.75;;;34.08;;
34836;SDS011;21053;50.848;4.652;2022-11-20T08:28:06;106.80;;;34.53;;
34836;SDS011;21053;50.848;4.652;2022-11-20T08:33:04;105.95;;;32.22;;
34836;SDS011;21053;50.848;4.652;2022-11-20T08:35:45;98.63;;;31.50;;
34836;SDS011;21053;50.848;4.652;2022-11-20T08:38:11;106.55;;;35.10;;
34836;SDS011;21053;50.848;4.652;2022-11-20T08:40:39;92.43;;;30.80;;
34836;SDS011;21053;50.848;4.652;2022-11-20T08:43:05;96.03;;;32.20;;
34836;SDS011;21053;50.848;4.652;2022-11-20T08:45:30;98.85;;;30.42;;
34836;SDS011;21053;50.848;4.652;2022-11-20T08:48:00;92.95;;;29.65;;
34836;SDS011;21053;50.848;4.652;2022-11-20T08:50:29;110.95;;;33.08;;
34836;SDS011;21053;50.848;4.652;2022-11-20T08:53:05;113.95;;;34.15;;
34836;SDS011;21053;50.848;4.652;2022-11-20T08:55:32;97.43;;;31.20;;
34836;SDS011;21053;50.848;4.652;2022-11-20T08:58:04;93.43;;;30.20;;
34836;SDS011;21053;50.848;4.652;2022-11-20T09:00:32;100.18;;;29.45;;
34836;SDS011;21053;50.848;4.652;2022-11-20T09:02:59;101.65;;;30.20;;
34836;SDS011;21053;50.848;4.652;2022-11-20T09:05:28;92.47;;;30.40;;
34836;SDS011;21053;50.848;4.652;2022-11-20T09:07:58;94.45;;;30.15;;
34836;SDS011;21053;50.848;4.652;2022-11-20T09:10:26;108.13;;;31.17;;
34836;SDS011;21053;50.848;4.652;2022-11-20T09:12:53;95.18;;;30.45;;
34836;SDS011;21053;50.848;4.652;2022-11-20T09:15:23;94.72;;;29.90;;
34836;SDS011;21053;50.848;4.652;2022-11-20T09:17:59;91.43;;;30.15;;
34836;SDS011;21053;50.848;4.652;2022-11-20T09:20:30;90.43;;;28.50;;
34836;SDS011;21053;50.848;4.652;2022-11-20T09:22:56;93.57;;;29.88;;
34836;SDS011;21053;50.848;4.652;2022-11-20T09:25:24;94.68;;;28.65;;
34836;SDS011;21053;50.848;4.652;2022-11-20T09:27:58;99.88;;;29.02;;
34836;SDS011;21053;50.848;4.652;2022-11-20T09:30:24;94.75;;;28.75;;
34836;SDS011;21053;50.848;4.652;2022-11-20T09:35:21;99.97;;;28.25;;
34836;SDS011;21053;50.848;4.652;2022-11-20T09:42:59;102.60;;;29.48;;
34836;SDS011;21053;50.848;4.652;2022-11-20T09:45:52;103.05;;;28.58;;
34836;SDS011;21053;50.848;4.652;2022-11-20T09:56:39;85.15;;;26.15;;
34836;SDS011;21053;50.848;4.652;2022-11-20T09:59:13;85.03;;;26.75;;
34836;SDS011;21053;50.848;4.652;2022-11-20T10:05:31;80.35;;;24.95;;
34836;SDS011;21053;50.848;4.652;2022-11-20T10:19:07;74.55;;;25.02;;
34836;SDS011;21053;50.848;4.652;2022-11-20T10:21:55;69.70;;;23.38;;
34836;SDS011;21053;50.848;4.652;2022-11-20T10:30:14;61.13;;;22.70;;
34836;SDS011;21053;50.848;4.652;2022-11-20T10:32:46;57.38;;;21.58;;
34836;SDS011;21053;50.848;4.652;2022-11-20T10:35:34;58.35;;;21.58;;
34836;SDS011;21053;50.848;4.652;2022-11-20T10:38:07;64.65;;;20.70;;
34836;SDS011;21053;50.848;4.652;2022-11-20T10:40:49;48.75;;;20.23;;
34836;SDS011;21053;50.848;4.652;2022-11-20T10:43:19;49.80;;;19.60;;
34836;SDS011;21053;50.848;4.652;2022-11-20T10:48:35;47.70;;;17.77;;
34836;SDS011;21053;50.848;4.652;2022-11-20T10:56:42;39.20;;;15.43;;
34836;SDS011;21053;50.848;4.652;2022-11-20T10:59:26;34.22;;;15.07;;
34836;SDS011;21053;50.848;4.652;2022-11-20T11:02:20;32.40;;;13.73;;
34836;SDS011;21053;50.848;4.652;2022-11-20T11:04:50;33.47;;;12.07;;
34836;SDS011;21053;50.848;4.652;2022-11-20T11:07:22;36.47;;;12.52;;
34836;SDS011;21053;50.848;4.652;2022-11-20T11:09:56;31.98;;;11.70;;
34836;SDS011;21053;50.848;4.652;2022-11-20T11:12:26;20.50;;;10.50;;
34836;SDS011;21053;50.848;4.652;2022-11-20T11:14:55;28.67;;;10.52;;
34836;SDS011;21053;50.848;4.652;2022-11-20T11:17:27;21.33;;;8.98;;
34836;SDS011;21053;50.848;4.652;2022-11-20T11:19:58;22.25;;;8.85;;
34836;SDS011;21053;50.848;4.652;2022-11-20T11:22:27;24.13;;;8.32;;
34836;SDS011;21053;50.848;4.652;2022-11-20T11:24:59;18.98;;;7.10;;
34836;SDS011;21053;50.848;4.652;2022-11-20T11:27:25;20.15;;;6.55;;
34836;SDS011;21053;50.848;4.652;2022-11-20T11:30:01;20.35;;;6.78;;
34836;SDS011;21053;50.848;4.652;2022-11-20T11:40:40;13.00;;;4.00;;
34836;SDS011;21053;50.848;4.652;2022-11-20T11:43:16;11.57;;;4.57;;
34836;SDS011;21053;50.848;4.652;2022-11-20T11:46:06;9.18;;;4.10;;
34836;SDS011;21053;50.848;4.652;2022-11-20T11:48:57;14.50;;;3.22;;
34836;SDS011;21053;50.848;4.652;2022-11-20T11:51:26;10.43;;;3.47;;
34836;SDS011;21053;50.848;4.652;2022-11-20T11:53:58;11.20;;;3.63;;
34836;SDS011;21053;50.848;4.652;2022-11-20T11:56:28;9.13;;;3.30;;
34836;SDS011;21053;50.848;4.652;2022-11-20T11:58:56;13.18;;;3.28;;
34836;SDS011;21053;50.848;4.652;2022-11-20T12:01:41;8.90;;;3.15;;
34836;SDS011;21053;50.848;4.652;2022-11-20T12:07:13;10.57;;;3.00;;
34836;SDS011;21053;50.848;4.652;2022-11-20T12:09:59;13.73;;;3.95;;
34836;SDS011;21053;50.848;4.652;2022-11-20T12:14:58;14.15;;;3.45;;
34836;SDS011;21053;50.848;4.652;2022-11-20T12:19:53;12.13;;;3.30;;
34836;SDS011;21053;50.848;4.652;2022-11-20T12:25:14;11.80;;;2.60;;
34836;SDS011;21053;50.848;4.652;2022-11-20T12:30:33;8.38;;;2.95;;
34836;SDS011;21053;50.848;4.652;2022-11-20T12:33:31;10.30;;;2.80;;
34836;SDS011;21053;50.848;4.652;2022-11-20T12:41:25;5.55;;;2.60;;
34836;SDS011;21053;50.848;4.652;2022-11-20T12:53:37;10.95;;;3.92;;
34836;SDS011;21053;50.848;4.652;2022-11-20T13:01:20;6.50;;;2.72;;
34836;SDS011;21053;50.848;4.652;2022-11-20T13:07:21;12.88;;;3.60;;
34836;SDS011;21053;50.848;4.652;2022-11-20T13:09:53;17.40;;;6.35;;
34836;SDS011;21053;50.848;4.652;2022-11-20T13:20:29;12.98;;;3.05;;
34836;SDS011;21053;50.848;4.652;2022-11-20T13:22:55;13.50;;;4.20;;
34836;SDS011;21053;50.848;4.652;2022-11-20T13:25:29;14.05;;;7.32;;
34836;SDS011;21053;50.848;4.652;2022-11-20T13:27:55;14.25;;;4.22;;
34836;SDS011;21053;50.848;4.652;2022-11-20T13:30:28;14.80;;;3.70;;
34836;SDS011;21053;50.848;4.652;2022-11-20T13:33:22;11.85;;;4.38;;
34836;SDS011;21053;50.848;4.652;2022-11-20T13:36:02;8.80;;;3.63;;
34836;SDS011;21053;50.848;4.652;2022-11-20T13:38:52;14.27;;;3.55;;
34836;SDS011;21053;50.848;4.652;2022-11-20T13:41:29;12.73;;;3.42;;
34836;SDS011;21053;50.848;4.652;2022-11-20T13:44:04;9.82;;;3.25;;
34836;SDS011;21053;50.848;4.652;2022-11-20T13:49:16;9.02;;;3.47;;
34836;SDS011;21053;50.848;4.652;2022-11-20T13:51:51;7.60;;;3.15;;
34836;SDS011;21053;50.848;4.652;2022-11-20T14:00:43;4.78;;;3.28;;
34836;SDS011;21053;50.848;4.652;2022-11-20T14:06:01;7.03;;;2.85;;
34836;SDS011;21053;50.848;4.652;2022-11-20T14:08:39;9.43;;;3.30;;
34836;SDS011;21053;50.848;4.652;2022-11-20T14:11:21;5.68;;;2.80;;
34836;SDS011;21053;50.848;4.652;2022-11-20T14:16:40;11.57;;;2.45;;
34836;SDS011;21053;50.848;4.652;2022-11-20T14:24:44;7.90;;;2.83;;
34836;SDS011;21053;50.848;4.652;2022-11-20T14:27:15;9.85;;;2.65;;
34836;SDS011;21053;50.848;4.652;2022-11-20T14:29:49;8.50;;;3.20;;
34836;SDS011;21053;50.848;4.652;2022-11-20T14:34:54;9.90;;;3.47;;
34836;SDS011;21053;50.848;4.652;2022-11-20T14:37:25;7.32;;;2.88;;
34836;SDS011;21053;50.848;4.652;2022-11-20T14:39:57;12.13;;;3.03;;
34836;SDS011;21053;50.848;4.652;2022-11-20T14:42:26;11.00;;;3.20;;
34836;SDS011;21053;50.848;4.652;2022-11-20T14:44:59;6.72;;;2.67;;
34836;SDS011;21053;50.848;4.652;2022-11-20T14:47:30;5.95;;;2.80;;
34836;SDS011;21053;50.848;4.652;2022-11-20T14:50:00;6.18;;;2.88;;
34836;SDS011;21053;50.848;4.652;2022-11-20T14:52:26;5.07;;;2.60;;
34836;SDS011;21053;50.848;4.652;2022-11-20T14:54:56;3.45;;;2.13;;
34836;SDS011;21053;50.848;4.652;2022-11-20T15:02:44;3.45;;;2.42;;
34836;SDS011;21053;50.848;4.652;2022-11-20T15:05:14;3.53;;;2.40;;
34836;SDS011;21053;50.848;4.652;2022-11-20T15:07:44;6.70;;;2.63;;
34836;SDS011;21053;50.848;4.652;2022-11-20T15:10:27;4.88;;;2.42;;
34836;SDS011;21053;50.848;4.652;2022-11-20T15:12:58;6.30;;;2.45;;
34836;SDS011;21053;50.848;4.652;2022-11-20T15:18:04;6.57;;;2.70;;
34836;SDS011;21053;50.848;4.652;2022-11-20T15:20:31;5.43;;;2.63;;
34836;SDS011;21053;50.848;4.652;2022-11-20T15:22:59;3.80;;;2.65;;
34836;SDS011;21053;50.848;4.652;2022-11-20T15:25:25;5.68;;;3.20;;
34836;SDS011;21053;50.848;4.652;2022-11-20T15:27:57;6.32;;;3.05;;
34836;SDS011;21053;50.848;4.652;2022-11-20T15:32:53;9.35;;;3.60;;
34836;SDS011;21053;50.848;4.652;2022-11-20T15:35:20;5.47;;;3.40;;
34836;SDS011;21053;50.848;4.652;2022-11-20T15:37:49;9.38;;;3.78;;
34836;SDS011;21053;50.848;4.652;2022-11-20T15:40:21;7.78;;;3.90;;
34836;SDS011;21053;50.848;4.652;2022-11-20T15:45:43;14.65;;;4.50;;
34836;SDS011;21053;50.848;4.652;2022-11-20T15:48:34;12.18;;;5.03;;
34836;SDS011;21053;50.848;4.652;2022-11-20T15:54:08;14.63;;;4.88;;
34836;SDS011;21053;50.848;4.652;2022-11-20T15:56:40;12.90;;;4.60;;
34836;SDS011;21053;50.848;4.652;2022-11-20T15:59:09;11.05;;;4.93;;
34836;SDS011;21053;50.848;4.652;2022-11-20T16:01:38;10.43;;;4.32;;
34836;SDS011;21053;50.848;4.652;2022-11-20T16:04:14;14.18;;;4.35;;
34836;SDS011;21053;50.848;4.652;2022-11-20T16:06:43;12.82;;;4.50;;
34836;SDS011;21053;50.848;4.652;2022-11-20T16:09:12;11.95;;;4.88;;
34836;SDS011;21053;50.848;4.652;2022-11-20T16:11:38;12.35;;;4.60;;
34836;SDS011;21053;50.848;4.652;2022-11-20T16:14:09;14.30;;;4.72;;
34836;SDS011;21053;50.848;4.652;2022-11-20T16:19:24;13.15;;;4.22;;
34836;SDS011;21053;50.848;4.652;2022-11-20T16:21:49;12.43;;;4.00;;
34836;SDS011;21053;50.848;4.652;2022-11-20T16:24:23;18.30;;;5.57;;
34836;SDS011;21053;50.848;4.652;2022-11-20T16:26:55;17.73;;;4.60;;
34836;SDS011;21053;50.848;4.652;2022-11-20T16:29:23;20.00;;;4.15;;
34836;SDS011;21053;50.848;4.652;2022-11-20T16:31:50;12.05;;;4.10;;
34836;SDS011;21053;50.848;4.652;2022-11-20T16:36:45;20.90;;;4.13;;
34836;SDS011;21053;50.848;4.652;2022-11-20T16:39:13;19.88;;;3.55;;
34836;SDS011;21053;50.848;4.652;2022-11-20T16:41:40;14.90;;;3.83;;
34836;SDS011;21053;50.848;4.652;2022-11-20T16:44:07;15.57;;;3.67;;
34836;SDS011;21053;50.848;4.652;2022-11-20T16:46:35;23.20;;;4.18;;
34836;SDS011;21053;50.848;4.652;2022-11-20T16:49:03;23.73;;;4.80;;
34836;SDS011;21053;50.848;4.652;2022-11-20T16:51:33;17.67;;;4.18;;
34836;SDS011;21053;50.848;4.652;2022-11-20T16:54:04;27.13;;;4.57;;
34836;SDS011;21053;50.848;4.652;2022-11-20T16:56:34;22.73;;;3.92;;
34836;SDS011;21053;50.848;4.652;2022-11-20T16:59:03;24.88;;;4.00;;
34836;SDS011;21053;50.848;4.652;2022-11-20T17:01:32;27.67;;;4.40;;
34836;SDS011;21053;50.848;4.652;2022-11-20T17:04:01;21.40;;;4.53;;
34836;SDS011;21053;50.848;4.652;2022-11-20T17:06:31;20.88;;;4.32;;
34836;SDS011;21053;50.848;4.652;2022-11-20T17:09:09;20.65;;;3.72;;
34836;SDS011;21053;50.848;4.652;2022-11-20T17:14:05;21.73;;;4.32;;
34836;SDS011;21053;50.848;4.652;2022-11-20T17:16:37;22.60;;;3.97;;
34836;SDS011;21053;50.848;4.652;2022-11-20T17:19:06;21.73;;;4.38;;
34836;SDS011;21053;50.848;4.652;2022-11-20T17:21:36;16.65;;;4.00;;
34836;SDS011;21053;50.848;4.652;2022-11-20T17:24:11;21.45;;;3.80;;
34836;SDS011;21053;50.848;4.652;2022-11-20T17:26:47;26.95;;;4.20;;
34836;SDS011;21053;50.848;4.652;2022-11-20T17:29:19;15.20;;;3.25;;
34836;SDS011;21053;50.848;4.652;2022-11-20T17:31:50;13.57;;;2.67;;
34836;SDS011;21053;50.848;4.652;2022-11-20T17:36:48;16.58;;;3.10;;
34836;SDS011;21053;50.848;4.652;2022-11-20T17:39:14;23.30;;;3.17;;
34836;SDS011;21053;50.848;4.652;2022-11-20T17:41:44;16.67;;;2.90;;
34836;SDS011;21053;50.848;4.652;2022-11-20T17:44:31;16.35;;;3.05;;
34836;SDS011;21053;50.848;4.652;2022-11-20T17:46:57;8.05;;;1.92;;
34836;SDS011;21053;50.848;4.652;2022-11-20T17:49:25;15.23;;;2.53;;
34836;SDS011;21053;50.848;4.652;2022-11-20T17:54:20;10.75;;;2.67;;
34836;SDS011;21053;50.848;4.652;2022-11-20T17:56:46;15.25;;;3.28;;
34836;SDS011;21053;50.848;4.652;2022-11-20T17:59:30;14.05;;;2.08;;
34836;SDS011;21053;50.848;4.652;2022-11-20T18:01:56;9.77;;;2.00;;
34836;SDS011;21053;50.848;4.652;2022-11-20T18:04:25;14.43;;;2.30;;
34836;SDS011;21053;50.848;4.652;2022-11-20T18:06:57;17.33;;;2.53;;
34836;SDS011;21053;50.848;4.652;2022-11-20T18:11:51;20.50;;;2.40;;
34836;SDS011;21053;50.848;4.652;2022-11-20T18:17:07;15.60;;;2.65;;
34836;SDS011;21053;50.848;4.652;2022-11-20T18:22:08;9.88;;;2.78;;
34836;SDS011;21053;50.848;4.652;2022-11-20T18:24:37;12.35;;;2.75;;
34836;SDS011;21053;50.848;4.652;2022-11-20T18:27:05;7.43;;;2.85;;
34836;SDS011;21053;50.848;4.652;2022-11-20T18:29:35;9.98;;;2.60;;
34836;SDS011;21053;50.848;4.652;2022-11-20T18:32:02;11.48;;;2.88;;
34836;SDS011;21053;50.848;4.652;2022-11-20T18:34:31;10.32;;;3.22;;
34836;SDS011;21053;50.848;4.652;2022-11-20T18:39:27;14.32;;;3.03;;
34836;SDS011;21053;50.848;4.652;2022-11-20T18:41:53;14.85;;;3.00;;
34836;SDS011;21053;50.848;4.652;2022-11-20T18:44:38;14.00;;;3.47;;
34836;SDS011;21053;50.848;4.652;2022-11-20T18:47:27;20.45;;;4.03;;